Time;durP1;ratioP1;P1;durP2;ratioP2;P2;SDS_P1;SDS_P2;PMS_P1;PMS_P2;Temp;Humidity;BMP_temperature;BMP_pressure;BME280_temperature;BME280_humidity;BME280_pressure;Samples;Min_cycle;Max_cycle;Signal;HPM_P1;HPM_P2
2023/04/10 00:00:52;;;;;;;14.93;11.00;;;;;;;9.51;78.79;94993.84;5072124;28;20527;-77
2023/04/10 00:03:18;;;;;;;16.47;11.97;;;;;;;9.47;78.84;95002.91;5071968;28;20440;-77
2023/04/10 00:05:45;;;;;;;19.60;14.37;;;;;;;9.45;78.63;94998.75;5071919;28;20451;-76
2023/04/10 00:08:13;;;;;;;18.60;13.03;;;;;;;9.44;78.61;94994.44;5071878;28;20453;-77
2023/04/10 00:10:40;;;;;;;12.93;11.50;;;;;;;9.39;78.76;94986.97;5071686;28;20483;-75
2023/04/10 00:13:07;;;;;;;17.30;11.53;;;;;;;9.41;78.71;94989.47;5069756;28;20429;-76
2023/04/10 00:15:34;;;;;;;13.73;11.20;;;;;;;9.36;78.09;94986.38;5071732;28;20841;-77
2023/04/10 00:18:01;;;;;;;18.17;11.30;;;;;;;9.32;77.67;94980.56;5071935;28;20805;-77
2023/04/10 00:20:27;;;;;;;14.03;10.47;;;;;;;9.35;78.63;94984.72;5072064;28;20443;-76
2023/04/10 00:22:55;;;;;;;13.73;10.47;;;;;;;9.32;79.14;94980.56;5071562;28;20447;-76
2023/04/10 00:25:25;;;;;;;16.37;11.13;;;;;;;9.31;78.80;94984.13;5071647;28;20493;-79
2023/04/10 00:27:53;;;;;;;15.30;11.77;;;;;;;9.37;79.50;94981.00;5073783;28;20531;-77
2023/04/10 00:30:19;;;;;;;18.10;13.30;;;;;;;9.42;79.17;94978.03;5075716;28;20469;-77
2023/04/10 00:32:46;;;;;;;17.10;11.93;;;;;;;9.45;78.79;94983.03;5075916;28;20443;-77
2023/04/10 00:35:13;;;;;;;15.60;11.93;;;;;;;9.45;77.88;94981.25;5075843;28;20444;-78
2023/04/10 00:37:40;;;;;;;15.80;12.20;;;;;;;9.42;78.41;94976.25;5056795;28;20774;-78
2023/04/10 00:40:08;;;;;;;11.63;10.03;;;;;;;9.38;77.58;94966.97;5075931;28;20451;-78
2023/04/10 00:42:37;;;;;;;12.50;10.83;;;;;;;9.44;78.03;94973.50;5056637;28;20930;-77
2023/04/10 00:45:04;;;;;;;15.43;10.87;;;;;;;9.45;77.19;94970.75;5040445;28;20524;-76
2023/04/10 00:47:32;;;;;;;13.23;10.80;;;;;;;9.45;77.13;94968.13;5075494;28;20699;-77
2023/04/10 00:49:59;;;;;;;11.07;9.40;;;;;;;9.45;76.69;94964.69;5075456;28;21007;-77
2023/04/10 00:52:26;;;;;;;13.10;9.77;;;;;;;9.43;76.60;94956.94;5075310;28;20449;-77
2023/04/10 00:54:54;;;;;;;12.40;10.20;;;;;;;9.48;76.50;94956.59;5075557;28;20443;-78
2023/04/10 00:57:21;;;;;;;13.10;9.90;;;;;;;9.48;76.71;94957.41;5075778;28;20435;-77
2023/04/10 00:59:50;;;;;;;12.40;9.70;;;;;;;9.51;76.86;94958.97;5075601;28;20512;-77
2023/04/10 01:02:18;;;;;;;11.37;9.83;;;;;;;9.57;76.23;94961.13;5075179;28;20447;-78
2023/04/10 01:04:46;;;;;;;9.67;8.67;;;;;;;9.54;76.24;94953.47;5075242;28;20518;-77
2023/04/10 01:07:27;;;;;;;12.80;9.53;;;;;;;9.52;75.49;94952.75;5075436;28;20494;-77
2023/04/10 01:10:03;;;;;;;12.10;9.43;;;;;;;9.45;74.73;94952.44;5075039;28;20445;-77
2023/04/10 01:12:43;;;;;;;8.53;6.97;;;;;;;9.18;71.80;94947.56;5075159;28;20453;-78
2023/04/10 01:15:16;;;;;;;9.13;7.60;;;;;;;9.27;71.50;94948.66;5074507;28;20925;-78
2023/04/10 01:17:49;;;;;;;11.77;8.93;;;;;;;9.30;73.19;94949.25;5075239;28;20459;-78
2023/04/10 01:20:21;;;;;;;13.57;9.47;;;;;;;9.38;73.74;94951.25;5075119;28;20448;-78
2023/04/10 01:23:09;;;;;;;13.83;9.90;;;;;;;9.40;73.99;94951.97;5074748;28;20445;-76
2023/04/10 01:25:43;;;;;;;13.60;9.67;;;;;;;9.39;74.73;94944.22;5074890;28;20448;-77
2023/04/10 01:28:41;;;;;;;15.23;10.40;;;;;;;9.45;74.80;94949.81;5039289;28;20498;-77
2023/04/10 01:31:11;;;;;;;12.40;9.87;;;;;;;9.43;75.03;94938.63;5074643;28;20484;-77
2023/04/10 01:33:44;;;;;;;12.73;10.50;;;;;;;9.45;75.87;94944.56;5074495;28;21008;-77
2023/04/10 01:36:13;;;;;;;10.60;9.40;;;;;;;9.47;76.09;94947.91;5074636;28;20476;-77
2023/04/10 01:38:43;;;;;;;15.30;10.37;;;;;;;9.48;76.23;94948.72;5074234;28;20934;-77
2023/04/10 01:41:10;;;;;;;13.30;10.97;;;;;;;9.50;76.02;94946.81;5074597;28;20542;-78
2023/04/10 01:43:40;;;;;;;13.07;10.20;;;;;;;9.47;76.08;94947.06;5075598;28;20437;-78
2023/04/10 01:46:07;;;;;;;11.63;9.40;;;;;;;9.48;76.72;94951.34;5074587;28;20935;-77
2023/04/10 01:48:35;;;;;;;12.97;9.20;;;;;;;9.49;77.16;94945.16;5074340;28;20444;-79
2023/04/10 01:51:05;;;;;;;14.10;10.30;;;;;;;9.50;77.57;94949.44;5074759;28;20789;-78
2023/04/10 01:53:33;;;;;;;11.37;9.50;;;;;;;9.46;77.14;94948.03;5074439;28;20456;-78
2023/04/10 01:56:01;;;;;;;14.27;9.30;;;;;;;9.47;76.67;94949.69;5074412;28;20464;-78
2023/04/10 01:58:28;;;;;;;11.47;8.60;;;;;;;9.44;76.92;94936.84;5055780;28;21016;-78
2023/04/10 02:00:56;;;;;;;13.17;10.00;;;;;;;9.46;77.38;94948.84;5074063;28;20938;-78
2023/04/10 02:03:23;;;;;;;10.27;8.70;;;;;;;9.47;77.87;94945.28;5074375;28;20455;-78
2023/04/10 02:06:02;;;;;;;14.10;10.67;;;;;;;9.42;77.85;94943.97;5074165;28;20516;-78
2023/04/10 02:08:34;;;;;;;12.00;9.20;;;;;;;9.42;78.43;94939.56;5073898;28;20957;-78
2023/04/10 02:11:10;;;;;;;11.97;9.53;;;;;;;9.42;78.28;94936.13;5073866;28;20486;-77
2023/04/10 02:13:40;;;;;;;15.20;10.60;;;;;;;9.43;78.65;94927.31;5073866;28;20453;-78
2023/04/10 02:16:10;;;;;;;10.73;9.37;;;;;;;9.44;78.90;94923.75;5073993;28;20490;-78
2023/04/10 02:18:38;;;;;;;12.07;9.47;;;;;;;9.43;79.19;94922.91;5074027;28;20804;-78
2023/04/10 02:21:06;;;;;;;13.00;9.83;;;;;;;9.43;79.35;94919.47;5073944;28;20950;-78
2023/04/10 02:23:33;;;;;;;13.50;10.30;;;;;;;9.42;78.99;94925.66;5073807;28;20447;-78
2023/04/10 02:26:06;;;;;;;12.37;8.87;;;;;;;9.35;78.90;94919.25;5073604;28;20450;-77
2023/04/10 02:28:33;;;;;;;13.00;9.90;;;;;;;9.35;78.57;94914.00;5073926;28;20539;-78
2023/04/10 02:31:00;;;;;;;12.60;10.10;;;;;;;9.31;79.12;94916.88;5073347;28;21296;-78
2023/04/10 02:33:28;;;;;;;11.50;8.90;;;;;;;9.26;79.09;94923.44;5073745;28;20855;-78
2023/04/10 02:35:55;;;;;;;9.67;8.67;;;;;;;9.23;78.98;94914.00;5073487;28;20508;-77
2023/04/10 02:38:21;;;;;;;11.77;9.57;;;;;;;9.22;79.11;94906.28;5073587;28;20453;-78
2023/04/10 02:40:49;;;;;;;13.57;10.23;;;;;;;9.18;79.18;94905.69;5038063;28;20436;-79
2023/04/10 02:43:16;;;;;;;13.60;10.20;;;;;;;9.16;79.16;94901.53;5073438;28;20459;-78
2023/04/10 02:45:42;;;;;;;11.03;9.63;;;;;;;9.13;78.92;94900.00;5073361;28;20963;-78
2023/04/10 02:48:09;;;;;;;10.57;9.47;;;;;;;9.11;79.06;94901.91;5038008;28;20453;-76
2023/04/10 02:50:38;;;;;;;10.17;8.70;;;;;;;9.11;78.54;94898.44;5072302;28;20440;-78
2023/04/10 02:53:04;;;;;;;8.17;7.07;;;;;;;9.10;78.11;94892.38;5073377;28;20446;-78
2023/04/10 02:55:31;;;;;;;10.87;8.90;;;;;;;9.17;77.30;94892.72;5072912;28;20466;-78
2023/04/10 02:57:58;;;;;;;10.57;8.90;;;;;;;9.18;76.87;94892.59;5073262;28;20452;-78
2023/04/10 03:00:25;;;;;;;9.43;8.07;;;;;;;9.19;77.04;94888.19;5073389;28;20486;-77
2023/04/10 03:02:52;;;;;;;8.40;7.20;;;;;;;9.19;76.57;94883.78;5072816;28;20450;-78
2023/04/10 03:05:19;;;;;;;9.10;7.23;;;;;;;9.18;76.27;94889.97;5073494;28;20447;-77
2023/04/10 03:07:47;;;;;;;9.50;6.47;;;;;;;9.13;76.42;94880.84;5072748;28;20814;-78
2023/04/10 03:10:14;;;;;;;12.30;7.70;;;;;;;9.14;76.62;94887.72;5073007;28;20459;-78
2023/04/10 03:12:41;;;;;;;9.63;7.30;;;;;;;9.10;76.92;94887.16;5072970;28;20505;-78
2023/04/10 03:15:08;;;;;;;7.83;7.03;;;;;;;9.05;76.71;94889.31;5072569;28;20478;-76
2023/04/10 03:17:35;;;;;;;9.90;7.63;;;;;;;8.96;77.39;94880.41;5072704;28;20454;-78
2023/04/10 03:20:02;;;;;;;8.17;7.30;;;;;;;8.92;77.26;94889.41;5072535;28;20497;-78
2023/04/10 03:22:31;;;;;;;7.10;6.30;;;;;;;8.94;77.23;94891.91;5072685;28;20464;-77
2023/04/10 03:25:00;;;;;;;9.30;7.23;;;;;;;8.93;77.86;94885.00;5072509;28;20445;-78
2023/04/10 03:27:27;;;;;;;8.67;7.00;;;;;;;8.94;78.04;94886.69;5072771;28;20522;-79
2023/04/10 03:29:54;;;;;;;7.97;7.20;;;;;;;8.92;78.22;94886.78;5072520;28;20451;-78
2023/04/10 03:32:21;;;;;;;9.60;8.23;;;;;;;8.92;77.91;94886.78;5072291;28;20577;-78
2023/04/10 03:34:48;;;;;;;9.73;7.63;;;;;;;8.93;77.77;94887.63;5072536;28;20431;-78
2023/04/10 03:37:15;;;;;;;8.57;6.97;;;;;;;8.95;77.76;94888.34;5072740;28;20509;-77
2023/04/10 03:39:41;;;;;;;9.83;7.90;;;;;;;8.92;77.43;94885.97;5072270;28;20828;-78
2023/04/10 03:42:10;;;;;;;8.70;6.90;;;;;;;8.91;77.17;94887.75;5072370;28;20442;-79
2023/04/10 03:44:37;;;;;;;8.07;6.60;;;;;;;8.86;76.68;94902.16;5037012;28;20451;-78
2023/04/10 03:47:03;;;;;;;8.73;7.20;;;;;;;8.80;76.70;94894.78;5072195;28;20945;-78
2023/04/10 03:49:30;;;;;;;12.23;8.43;;;;;;;8.73;76.77;94899.66;5072395;28;20446;-77
2023/04/10 03:51:57;;;;;;;14.53;10.07;;;;;;;8.73;77.36;94904.06;5072538;28;20488;-78
2023/04/10 03:54:24;;;;;;;11.77;8.77;;;;;;;8.77;76.96;94897.66;5072237;28;20508;-78
2023/04/10 03:56:50;;;;;;;11.37;8.57;;;;;;;8.86;77.14;94894.31;5072016;28;20447;-78
2023/04/10 03:59:19;;;;;;;12.60;9.37;;;;;;;8.92;77.28;94907.72;5072582;28;20802;-78
2023/04/10 04:01:45;;;;;;;16.00;11.73;;;;;;;8.98;77.35;94911.69;5071980;28;20452;-77
2023/04/10 04:04:12;;;;;;;25.33;16.17;;;;;;;9.03;76.20;94911.31;5071872;28;20435;-78
2023/04/10 04:06:39;;;;;;;23.60;15.20;;;;;;;9.00;77.20;94910.59;5071885;28;20805;-78
2023/04/10 04:09:06;;;;;;;18.87;12.43;;;;;;;9.03;76.61;94921.78;5072003;28;20534;-78
2023/04/10 04:11:33;;;;;;;20.03;14.67;;;;;;;9.05;76.91;94925.94;5071773;28;20471;-77
2023/04/10 04:14:00;;;;;;;17.70;14.67;;;;;;;8.78;78.03;94926.31;5036581;28;20455;-77
2023/04/10 04:16:28;;;;;;;15.13;11.43;;;;;;;8.66;79.20;94930.66;5072171;28;20852;-77
2023/04/10 04:18:54;;;;;;;16.70;12.63;;;;;;;8.85;78.78;94931.88;5072043;28;20496;-77
2023/04/10 04:21:21;;;;;;;13.50;10.53;;;;;;;9.10;78.02;94929.03;5071740;28;20456;-77
2023/04/10 04:23:48;;;;;;;11.83;9.97;;;;;;;9.34;76.82;94931.50;5072168;28;20470;-77
2023/04/10 04:26:15;;;;;;;13.23;10.33;;;;;;;9.42;76.31;94928.28;5071649;28;20961;-77
2023/04/10 04:28:41;;;;;;;11.50;9.00;;;;;;;9.62;75.46;94932.75;5071660;28;20436;-77
2023/04/10 04:31:08;;;;;;;9.20;7.77;;;;;;;9.87;74.10;94929.81;5071720;28;20450;-77
2023/04/10 04:33:36;;;;;;;10.97;8.53;;;;;;;10.23;73.56;94930.41;5071791;28;20445;-78
2023/04/10 04:36:03;;;;;;;9.03;7.70;;;;;;;10.68;72.12;94936.22;5071977;28;20915;-78
2023/04/10 04:38:30;;;;;;;10.47;7.73;;;;;;;11.03;71.28;94935.84;5071812;28;20448;-77
2023/04/10 04:40:57;;;;;;;8.70;7.80;;;;;;;11.34;69.50;94930.56;5071834;28;20433;-77
2023/04/10 04:43:24;;;;;;;12.93;8.10;;;;;;;11.72;67.98;94938.53;5071684;28;20453;-78
2023/04/10 04:45:50;;;;;;;12.03;7.73;;;;;;;11.98;66.04;94940.69;5071258;28;20449;-77
2023/04/10 04:48:17;;;;;;;10.60;8.53;;;;;;;12.09;65.00;94943.16;5071871;28;20451;-77
2023/04/10 04:50:46;;;;;;;7.80;6.90;;;;;;;12.00;65.75;94936.94;5071453;28;20525;-77
2023/04/10 04:53:13;;;;;;;12.53;7.80;;;;;;;12.13;65.91;94946.34;5071909;28;20489;-78
2023/04/10 04:55:41;;;;;;;8.83;7.63;;;;;;;12.27;65.51;94946.78;5071681;28;20480;-78
2023/04/10 04:58:08;;;;;;;13.33;8.20;;;;;;;12.47;64.60;94944.97;5071385;28;20448;-78
2023/04/10 05:00:34;;;;;;;8.33;7.53;;;;;;;12.67;64.37;94949.22;5071377;28;20451;-78
2023/04/10 05:03:01;;;;;;;9.00;7.60;;;;;;;12.83;62.54;94948.66;5052463;28;20430;-77
2023/04/10 05:05:28;;;;;;;7.27;6.20;;;;;;;13.02;62.19;94943.34;5071678;28;20445;-78
2023/04/10 05:07:56;;;;;;;9.57;7.37;;;;;;;13.09;59.44;94937.50;5052342;28;20449;-77
2023/04/10 05:10:23;;;;;;;15.87;7.97;;;;;;;13.12;60.14;94947.75;5071098;28;20784;-78
2023/04/10 05:12:49;;;;;;;9.80;7.00;;;;;;;13.08;60.06;94951.66;5071431;28;20871;-78
2023/04/10 05:15:16;;;;;;;7.97;7.17;;;;;;;12.91;59.79;94953.19;5074818;28;20476;-78
2023/04/10 05:17:43;;;;;;;8.33;6.93;;;;;;;12.66;60.20;94952.00;5074906;28;20440;-78
2023/04/10 05:20:11;;;;;;;8.43;7.07;;;;;;;12.44;60.83;94957.59;5075093;28;20448;-77
2023/04/10 05:22:38;;;;;;;16.43;7.37;;;;;;;12.18;61.86;94950.25;5074597;28;20442;-77
2023/04/10 05:25:07;;;;;;;10.70;8.00;;;;;;;11.97;62.87;94952.19;5074800;28;20448;-77
2023/04/10 05:27:34;;;;;;;11.97;8.30;;;;;;;11.81;63.16;94941.34;5074486;28;20445;-76
2023/04/10 05:30:01;;;;;;;12.83;8.50;;;;;;;11.74;63.86;94944.50;5074764;28;20441;-77
2023/04/10 05:32:27;;;;;;;14.23;8.90;;;;;;;11.70;64.85;94945.72;5074559;28;21002;-78
2023/04/10 05:34:54;;;;;;;22.30;9.23;;;;;;;11.75;65.06;94942.69;5055543;28;20855;-78
2023/04/10 05:37:21;;;;;;;16.00;9.80;;;;;;;11.93;65.63;94942.91;5074716;28;20456;-77
2023/04/10 05:39:48;;;;;;;16.03;8.17;;;;;;;12.01;64.65;94948.28;5074789;28;20457;-77
2023/04/10 05:42:16;;;;;;;13.80;10.20;;;;;;;12.00;65.00;94944.00;5074849;28;20429;-77
2023/04/10 05:44:44;;;;;;;14.73;10.80;;;;;;;11.93;64.19;94942.91;5074299;28;20847;-77
2023/04/10 05:47:11;;;;;;;20.43;10.87;;;;;;;11.88;65.29;94942.50;5074345;28;20937;-77
2023/04/10 05:49:38;;;;;;;13.03;9.80;;;;;;;11.79;65.01;94938.84;5074297;28;20444;-78
2023/04/10 05:52:05;;;;;;;15.50;9.53;;;;;;;11.64;65.80;94955.97;5074412;28;20534;-77
2023/04/10 05:54:31;;;;;;;14.57;9.77;;;;;;;11.55;66.39;94951.50;5073987;28;20444;-79
2023/04/10 05:56:58;;;;;;;14.40;10.23;;;;;;;11.44;65.66;94955.91;5074760;28;20461;-77
2023/04/10 05:59:26;;;;;;;14.53;9.97;;;;;;;11.38;66.72;94952.97;5074197;28;20448;-78
2023/04/10 06:01:53;;;;;;;12.90;9.97;;;;;;;11.30;66.75;94947.56;5074345;28;20448;-77
2023/04/10 06:04:21;;;;;;;14.30;9.20;;;;;;;11.25;66.06;94952.38;5074020;28;20443;-77
2023/04/10 06:06:47;;;;;;;15.10;9.40;;;;;;;11.16;66.47;94952.19;5073977;28;20607;-77
2023/04/10 06:09:14;;;;;;;16.40;12.50;;;;;;;11.18;66.93;94960.78;5073958;28;20923;-77
2023/04/10 06:11:41;;;;;;;19.13;11.67;;;;;;;11.12;67.36;94955.22;5074176;28;20444;-77
2023/04/10 06:14:08;;;;;;;16.20;9.70;;;;;;;11.17;67.66;94956.50;5073960;28;20455;-78
2023/04/10 06:16:36;;;;;;;13.30;9.83;;;;;;;11.18;68.25;94950.28;5073399;28;20472;-78
2023/04/10 06:19:03;;;;;;;19.00;10.37;;;;;;;11.19;68.69;94953.72;5073656;28;20445;-78
2023/04/10 06:21:29;;;;;;;12.33;8.70;;;;;;;11.21;68.94;94946.56;5073951;28;20499;-77
2023/04/10 06:23:56;;;;;;;12.03;8.43;;;;;;;11.23;68.85;94959.56;5054570;28;20441;-77
2023/04/10 06:26:24;;;;;;;18.43;9.87;;;;;;;11.12;68.58;94958.69;5072803;28;20833;-77
2023/04/10 06:28:51;;;;;;;13.63;10.77;;;;;;;11.13;68.97;94949.00;5073830;28;20688;-77
2023/04/10 06:31:20;;;;;;;17.03;10.20;;;;;;;11.06;69.48;94951.34;5073803;28;20440;-78
2023/04/10 06:33:49;;;;;;;12.87;10.10;;;;;;;11.05;68.44;94947.06;5073547;28;20599;-78
2023/04/10 06:36:20;;;;;;;13.87;9.50;;;;;;;11.06;68.56;94953.97;5073283;28;20433;-77
2023/04/10 06:38:53;;;;;;;12.30;10.40;;;;;;;11.06;69.28;94953.97;5039186;28;20429;-77
2023/04/10 06:41:19;;;;;;;14.07;10.87;;;;;;;10.99;70.26;94952.84;5073352;28;20966;-77
2023/04/10 06:43:46;;;;;;;16.10;10.20;;;;;;;10.88;69.90;94950.28;5073725;28;20506;-78
2023/04/10 06:46:14;;;;;;;16.97;10.33;;;;;;;10.87;70.93;94956.50;5073574;28;20445;-77
2023/04/10 06:48:48;;;;;;;12.57;10.10;;;;;;;10.71;70.13;94969.25;5073008;28;20870;-76
2023/04/10 06:51:16;;;;;;;10.90;9.20;;;;;;;10.83;69.47;94963.78;5073536;28;20437;-77
2023/04/10 06:53:48;;;;;;;11.53;9.20;;;;;;;10.93;70.86;94966.47;5073061;28;20525;-79
2023/04/10 06:56:15;;;;;;;13.70;10.73;;;;;;;10.94;69.91;94967.28;5073122;28;20845;-78
2023/04/10 06:58:41;;;;;;;20.53;11.60;;;;;;;11.03;69.34;94962.13;5072905;28;20559;-77
2023/04/10 07:01:08;;;;;;;22.03;11.80;;;;;;;11.07;70.34;94965.31;5072977;28;20498;-78
2023/04/10 07:03:40;;;;;;;13.33;11.70;;;;;;;11.09;69.35;94960.75;5072735;28;20445;-77
2023/04/10 07:09:33;;;;;;;20.30;12.30;;;;;;;10.89;69.47;94965.06;4971713;28;20453;-77
2023/04/10 07:12:00;;;;;;;21.13;11.77;;;;;;;10.74;70.29;94972.47;4971408;28;20468;-77
2023/04/10 07:14:27;;;;;;;15.60;10.43;;;;;;;10.79;70.15;94966.81;4923923;28;20460;-77
2023/04/10 07:16:53;;;;;;;14.40;11.17;;;;;;;10.89;70.25;94970.31;4939174;28;20476;-77
2023/04/10 07:19:20;;;;;;;17.03;10.13;;;;;;;10.97;70.53;94970.50;4971345;28;20963;-77
2023/04/10 07:21:48;;;;;;;13.60;10.83;;;;;;;11.03;69.62;94969.16;4923495;28;20441;-78
2023/04/10 07:24:16;;;;;;;12.23;10.30;;;;;;;11.15;69.76;94970.72;4971432;28;20446;-77
2023/04/10 07:26:44;;;;;;;14.60;9.53;;;;;;;11.21;68.61;94966.72;4984518;28;20457;-78
2023/04/10 07:29:11;;;;;;;10.63;9.63;;;;;;;11.23;68.96;94967.44;5030198;28;20895;-77
2023/04/10 07:31:38;;;;;;;11.90;9.07;;;;;;;10.69;69.40;94968.53;5029977;28;20438;-77
2023/04/10 07:34:05;;;;;;;12.43;10.80;;;;;;;10.77;69.44;94976.63;5029687;28;20996;-78
2023/04/10 07:36:32;;;;;;;13.63;10.20;;;;;;;10.49;70.82;94978.09;5029829;28;20438;-77
2023/04/10 07:38:59;;;;;;;13.60;10.80;;;;;;;10.55;70.43;94973.16;5033430;28;20821;-78
2023/04/10 07:41:25;;;;;;;12.47;10.80;;;;;;;10.74;70.38;94974.25;5072480;28;20447;-78
2023/04/10 07:43:54;;;;;;;14.73;10.93;;;;;;;10.64;70.48;94978.59;5072197;28;20486;-78
2023/04/10 07:46:21;;;;;;;12.23;10.93;;;;;;;10.74;70.53;94975.09;5072247;28;20505;-78
2023/04/10 07:48:48;;;;;;;11.60;10.40;;;;;;;10.67;70.73;94979.16;5072461;28;20433;-79
2023/04/10 07:51:15;;;;;;;11.87;10.13;;;;;;;10.80;70.29;94977.19;5072035;28;20436;-77
2023/04/10 07:53:42;;;;;;;15.10;11.30;;;;;;;10.84;70.31;94975.13;5071955;28;20490;-78
2023/04/10 07:56:15;;;;;;;17.43;11.43;;;;;;;10.79;69.87;94969.44;5072231;28;20456;-77
2023/04/10 07:58:42;;;;;;;13.43;10.83;;;;;;;10.83;69.74;94973.47;5072065;28;20516;-77
2023/04/10 08:01:10;;;;;;;14.07;11.17;;;;;;;10.91;70.41;94976.25;5036544;28;20441;-78
2023/04/10 08:03:40;;;;;;;14.90;11.37;;;;;;;10.87;70.23;94974.88;5072174;28;20432;-78
2023/04/10 08:06:09;;;;;;;15.07;11.53;;;;;;;10.58;71.36;94969.44;5072139;28;20509;-78
2023/04/10 08:08:36;;;;;;;14.13;12.00;;;;;;;10.39;71.49;94974.53;5071854;28;20540;-78
2023/04/10 08:11:04;;;;;;;14.07;11.67;;;;;;;10.58;72.06;94969.44;5072233;28;20497;-78
2023/04/10 08:13:32;;;;;;;13.90;10.50;;;;;;;10.66;71.95;94976.66;5071892;28;20516;-77
2023/04/10 08:15:58;;;;;;;11.90;10.60;;;;;;;10.67;71.39;94973.91;5071745;28;20481;-78
2023/04/10 08:18:27;;;;;;;13.63;11.53;;;;;;;10.84;70.49;94972.50;5071963;28;20462;-79
2023/04/10 08:20:53;;;;;;;16.60;11.50;;;;;;;10.90;70.23;94971.97;5071639;28;20448;-77
2023/04/10 08:23:20;;;;;;;15.20;12.00;;;;;;;11.05;71.48;94970.69;5071927;28;20439;-78
2023/04/10 08:25:47;;;;;;;14.93;11.27;;;;;;;11.11;70.56;94979.84;5071699;28;20444;-77
2023/04/10 08:28:14;;;;;;;16.57;11.50;;;;;;;11.18;70.32;94967.84;5071705;28;20452;-78
2023/04/10 08:30:40;;;;;;;17.03;12.63;;;;;;;11.12;69.91;94971.81;5071553;28;20506;-78
2023/04/10 08:33:07;;;;;;;16.60;10.87;;;;;;;11.09;70.12;94976.50;5071914;28;20489;-78
2023/04/10 08:35:35;;;;;;;13.63;10.90;;;;;;;10.93;70.37;94976.13;5071962;28;20456;-78
2023/04/10 08:38:02;;;;;;;13.67;10.93;;;;;;;11.06;71.07;94977.59;5071797;28;20444;-78
2023/04/10 08:40:29;;;;;;;15.20;12.10;;;;;;;11.13;71.90;94973.47;5071545;28;20448;-78
2023/04/10 08:42:56;;;;;;;13.40;11.33;;;;;;;11.07;70.82;94971.38;5071867;28;20448;-77
2023/04/10 08:45:22;;;;;;;11.30;10.10;;;;;;;11.08;69.68;94975.69;5071439;28;20433;-78
2023/04/10 08:47:52;;;;;;;13.10;10.80;;;;;;;10.72;70.95;94977.00;5072050;28;20451;-79
2023/04/10 08:50:19;;;;;;;12.60;10.70;;;;;;;10.84;72.69;94970.72;5073558;28;20547;-79
2023/04/10 08:52:51;;;;;;;11.37;10.13;;;;;;;10.94;70.69;94972.53;5075527;28;20476;-81
2023/04/10 08:55:19;;;;;;;14.37;11.40;;;;;;;10.73;71.06;94978.66;5074275;28;20471;-80
2023/04/10 08:57:47;;;;;;;12.00;10.70;;;;;;;10.76;70.95;94975.78;5074862;28;20915;-79
2023/04/10 09:00:15;;;;;;;12.87;10.47;;;;;;;10.67;71.12;94966.03;5075207;28;20693;-79
2023/04/10 09:02:42;;;;;;;14.60;11.43;;;;;;;10.54;72.95;94958.38;5075245;28;20452;-80
2023/04/10 09:05:12;;;;;;;12.57;10.40;;;;;;;10.70;72.93;94960.56;5074273;28;20900;-79
2023/04/10 09:07:39;;;;;;;14.90;10.93;;;;;;;10.94;71.60;94962.88;5074956;28;20517;-79
2023/04/10 09:10:08;;;;;;;15.57;11.40;;;;;;;11.00;71.21;94956.28;5074955;28;20476;-80
2023/04/10 09:12:46;;;;;;;14.80;11.13;;;;;;;11.05;70.10;94952.31;4990346;28;20425;-79
2023/04/10 09:15:13;;;;;;;16.57;12.57;;;;;;;11.21;70.88;94957.06;5074766;28;20546;-80
2023/04/10 09:17:55;;;;;;;16.47;12.17;;;;;;;11.18;69.34;94954.69;5074866;28;20934;-80
2023/04/10 09:20:23;;;;;;;13.13;10.67;;;;;;;11.04;69.90;94952.44;5074873;28;20868;-79
2023/04/10 09:22:50;;;;;;;16.60;11.20;;;;;;;11.21;70.31;94943.91;5074659;28;20454;-79
2023/04/10 09:25:32;;;;;;;23.13;10.77;;;;;;;11.25;70.21;94940.06;5074829;28;20444;-79
2023/04/10 09:28:04;;;;;;;18.10;11.73;;;;;;;11.26;69.76;94941.72;5074506;28;21173;-79
2023/04/10 09:30:39;;;;;;;14.27;11.80;;;;;;;11.51;68.38;94944.84;5074312;28;20432;-80
2023/04/10 09:33:22;;;;;;;15.13;10.77;;;;;;;11.54;67.76;94934.06;5074687;28;20506;-79
2023/04/10 09:35:50;;;;;;;12.33;10.70;;;;;;;11.37;68.61;94943.44;5074337;28;21012;-80
2023/04/10 09:38:17;;;;;;;14.30;10.80;;;;;;;11.34;68.21;94941.09;5074349;28;20850;-79
2023/04/10 09:40:46;;;;;;;13.87;10.80;;;;;;;11.52;68.67;94936.00;5074595;28;20448;-79
2023/04/10 09:43:24;;;;;;;16.17;12.30;;;;;;;11.62;67.53;94935.06;5074388;28;20798;-79
2023/04/10 09:45:52;;;;;;;13.73;11.10;;;;;;;11.51;66.67;94929.09;5074159;28;20453;-80
2023/04/10 09:48:20;;;;;;;11.83;9.90;;;;;;;11.13;67.67;94934.09;5074175;28;20448;-79
2023/04/10 09:50:47;;;;;;;14.50;11.17;;;;;;;10.99;68.26;94920.50;5074342;28;20463;-80
2023/04/10 09:53:15;;;;;;;11.60;9.97;;;;;;;11.02;68.54;94934.19;5074023;28;20491;-79
2023/04/10 09:55:42;;;;;;;12.10;10.10;;;;;;;11.00;68.44;94927.41;5074324;28;20932;-79
2023/04/10 09:58:11;;;;;;;14.30;9.50;;;;;;;11.14;67.51;94922.63;5055204;28;20449;-79
2023/04/10 10:00:41;;;;;;;12.30;9.97;;;;;;;11.15;65.88;94933.97;5073939;28;20449;-82
2023/04/10 10:03:10;;;;;;;11.50;10.00;;;;;;;11.25;65.41;94936.59;5074098;28;20441;-79
2023/04/10 10:05:39;;;;;;;11.10;9.40;;;;;;;11.30;65.06;94927.38;5074196;28;20445;-79
2023/04/10 10:08:07;;;;;;;13.23;11.07;;;;;;;11.45;65.55;94923.41;5073887;28;20440;-78
2023/04/10 10:10:34;;;;;;;15.33;10.70;;;;;;;11.56;64.38;94917.19;5054894;28;20444;-79
2023/04/10 10:13:03;;;;;;;13.23;9.73;;;;;;;11.60;64.63;94915.16;5073543;28;21077;-78
2023/04/10 10:15:37;;;;;;;12.00;9.23;;;;;;;11.68;64.63;94913.50;5071274;28;20555;-80
2023/04/10 10:18:10;;;;;;;12.13;10.60;;;;;;;11.69;64.76;94920.41;5073651;28;20451;-79
2023/04/10 10:20:38;;;;;;;13.00;10.90;;;;;;;11.71;64.38;94915.84;5073764;28;20445;-80
2023/04/10 10:23:07;;;;;;;10.70;9.33;;;;;;;11.84;63.04;94906.88;5074115;28;20697;-79
2023/04/10 10:25:35;;;;;;;13.00;9.00;;;;;;;11.79;62.96;94907.31;5054488;28;20447;-79
2023/04/10 10:28:04;;;;;;;20.33;11.77;;;;;;;12.05;63.39;94897.91;5073483;28;20506;-79
2023/04/10 10:30:34;;;;;;;12.93;10.10;;;;;;;12.19;63.81;94895.84;5073451;28;21010;-79
2023/04/10 10:33:05;;;;;;;12.30;9.67;;;;;;;12.33;61.48;94898.03;5073253;28;20445;-79
2023/04/10 10:35:32;;;;;;;10.10;8.77;;;;;;;12.30;61.68;94895.69;5073455;28;20489;-80
2023/04/10 10:38:00;;;;;;;10.97;9.53;;;;;;;12.24;61.04;94894.44;5073715;28;20531;-79
2023/04/10 10:40:31;;;;;;;13.53;9.80;;;;;;;12.18;60.94;94881.84;5073420;28;20456;-79
2023/04/10 10:43:09;;;;;;;10.63;9.30;;;;;;;12.35;61.13;94882.94;5073355;28;20445;-79
2023/04/10 10:45:44;;;;;;;11.63;10.07;;;;;;;12.08;60.77;94873.97;5072865;28;20531;-79
2023/04/10 10:48:10;;;;;;;10.60;9.47;;;;;;;12.01;62.55;94870.22;5071853;28;20877;-78
2023/04/10 10:50:56;;;;;;;10.37;9.10;;;;;;;11.89;61.20;94870.53;5073622;28;20440;-79
2023/04/10 10:53:39;;;;;;;11.77;9.53;;;;;;;12.28;61.98;94863.41;5071922;28;20481;-80
2023/04/10 10:56:34;;;;;;;9.70;8.70;;;;;;;12.32;58.88;94863.00;5072827;28;21036;-79
2023/04/10 10:59:02;;;;;;;11.10;8.57;;;;;;;12.44;58.30;94855.78;5054180;28;20462;-79
2023/04/10 11:01:30;;;;;;;11.63;9.47;;;;;;;12.63;59.30;94855.72;5073113;28;20468;-79
2023/04/10 11:03:58;;;;;;;12.53;9.67;;;;;;;12.93;59.61;94846.72;5071423;28;20510;-80
2023/04/10 11:06:50;;;;;;;10.10;8.23;;;;;;;13.21;57.45;94839.69;5037635;28;20449;-79
2023/04/10 11:09:48;;;;;;;9.47;8.50;;;;;;;13.00;56.33;94836.44;5060738;28;20460;-79
2023/04/10 11:12:15;;;;;;;12.03;9.10;;;;;;;13.23;56.68;94831.63;5071999;28;20446;-80
2023/04/10 11:14:44;;;;;;;11.13;9.53;;;;;;;12.99;56.93;94827.72;5072460;28;20561;-80
2023/04/10 11:17:12;;;;;;;10.83;9.73;;;;;;;13.03;57.01;94836.16;5072842;28;20442;-78
2023/04/10 11:19:59;;;;;;;11.37;10.17;;;;;;;12.80;55.99;94827.81;5072918;28;20442;-79
2023/04/10 11:22:26;;;;;;;11.30;8.90;;;;;;;12.50;55.00;94834.16;5072889;28;20541;-79
2023/04/10 11:25:01;;;;;;;13.33;10.27;;;;;;;12.41;56.02;94830.56;5053767;28;20445;-79
2023/04/10 11:27:43;;;;;;;13.03;9.43;;;;;;;12.50;56.55;94820.16;5072857;28;20960;-79
2023/04/10 11:30:26;;;;;;;10.50;8.90;;;;;;;12.55;57.12;94821.38;5072632;28;20481;-79
2023/04/10 11:32:55;;;;;;;13.00;9.67;;;;;;;12.67;55.96;94816.75;5053457;28;20522;-79
2023/04/10 11:35:22;;;;;;;8.97;7.77;;;;;;;12.78;55.29;94821.88;5072426;28;20486;-80
2023/04/10 11:37:50;;;;;;;12.43;9.10;;;;;;;12.58;55.53;94828.16;5053655;28;20962;-80